W4SNA-3 Weather Reports


time (UTC)temp
C
wind
direction
speed
KPH
gust
KPH
rain 1hr
cm
rain 24hr
cm
rain mn
cm
humidity
%
barometer
mb
20260510183948 25 297 1.6 6.4 0.00 0.00 0.00 37 1015.5
20260510183448 24 0 0.0 6.4 0.00 0.00 0.00 41 1015.5
20260510182948 24 306 3.2 6.4 0.00 0.00 0.00 39 1015.6
20260510182448 23 25 1.6 8.0 0.00 0.00 0.00 45 1015.7
20260510181948 23 316 1.6 8.0 0.00 0.00 0.00 42 1015.7
20260510181448 23 0 0.0 3.2 0.00 0.00 0.00 40 1015.7
20260510180948 23 0 0.0 4.8 0.00 0.00 0.00 38 1015.8
20260510180448 24 0 0.0 6.4 0.00 0.00 0.00 41 1015.8
20260510175948 24 24 1.6 6.4 0.00 0.00 0.00 39 1015.8
20260510175448 24 0 0.0 6.4 0.00 0.00 0.00 37 1015.7
20260510174949 24 342 3.2 6.4 0.00 0.00 0.00 39 1015.9
20260510174448 24 303 3.2 6.4 0.00 0.00 0.00 38 1015.9
20260510173949 24 336 1.6 8.0 0.00 0.00 0.00 40 1015.9
20260510173448 23 5 3.2 8.0 0.00 0.00 0.00 40 1015.9
20260510172948 23 9 1.6 4.8 0.00 0.00 0.00 42 1016.1
20260510172448 24 329 1.6 4.8 0.00 0.00 0.00 40 1015.2
20260510172003 24 0 0.0 6.4 0.00 0.00 0.00 41 1015.2
20260510171448 24 318 3.2 6.4 0.00 0.00 0.00 40 1015.3
20260510170949 23 0 0.0 8.0 0.00 0.00 0.00 42 1015.2
20260510170448 23 18 3.2 9.7 0.00 0.00 0.00 41 1015.4
20260510165948 23 0 0.0 9.7 0.00 0.00 0.00 48 1015.3
20260510165501 23 75 1.6 8.0 0.00 0.00 0.00 42 1015.5
20260510164948 23 0 0.0 4.8 0.00 0.00 0.00 40 1015.4
20260510164029 23 0 0.0 6.4 0.00 0.00 0.00 43 1015.6
20260510163529 23 118 1.6 6.4 0.00 0.00 0.00 44 1015.6
20260510162919 23 65 1.6 9.7 0.00 0.00 0.00 41 1015.5
20260510162419 23 275 3.2 9.7 0.00 0.00 0.00 42 1015.5
20260510161919 23 165 1.6 4.8 0.00 0.00 0.00 42 1015.6
20260510161419 24 0 0.0 4.8 0.00 0.00 0.00 40 1015.6
20260510160900 24 301 1.6 6.4 0.00 0.00 0.00 40 1015.6
20260510160400 23 0 0.0 4.8 0.00 0.00 0.00 41 1015.4
20260510155900 23 0 0.0 4.8 0.00 0.00 0.00 43 1015.4
20260510155400 23 0 0.0 4.8 0.00 0.00 0.00 42 1015.4
20260510154900 23 0 0.0 3.2 0.00 0.00 0.00 43 1015.4
20260510154400 23 0 0.0 6.4 0.00 0.00 0.00 43 1015.5
20260510153900 23 0 0.0 6.4 0.00 0.00 0.00 42 1015.5
20260510153401 23 0 0.0 8.0 0.00 0.00 0.00 45 1015.5
20260510152900 23 2 1.6 9.7 0.00 0.00 0.00 44 1015.7
20260510152400 23 64 1.6 11.3 0.00 0.00 0.00 45 1015.8
20260510151924 23 28 3.2 11.3 0.00 0.00 0.00 45 1015.8
20260510151400 22 320 3.2 6.4 0.00 0.00 0.00 45 1015.9
20260510150900 23 345 3.2 9.7 0.00 0.00 0.00 45 1016.0
20260510150400 23 17 3.2 9.7 0.00 0.00 0.00 45 1016.1
20260510145408 22 283 1.6 12.9 0.00 0.00 0.00 45 1015.9
20260510144922 22 239 1.6 8.0 0.00 0.00 0.00 48 1015.9
20260510144343 22 5 1.6 6.4 0.00 0.00 0.00 47 1015.8
20260510143843 22 0 0.0 8.0 0.00 0.00 0.00 47 1015.6
20260510143343 22 306 3.2 8.0 0.00 0.00 0.00 48 1015.6
20260510142843 22 319 3.2 6.4 0.00 0.00 0.00 46 1015.5
20260510142348 22 302 3.2 8.0 0.00 0.00 0.00 47 1015.6
20260510141859 22 34 1.6 8.0 0.00 0.00 0.00 49 1015.7
20260510141343 22 331 1.6 6.4 0.00 0.00 0.00 48 1015.7
20260510140843 22 350 1.6 6.4 0.00 0.00 0.00 49 1015.7
20260510140344 22 29 1.6 6.4 0.00 0.00 0.00 49 1015.7
20260510135844 22 325 1.6 8.0 0.00 0.00 0.00 50 1015.7
20260510135343 21 340 3.2 8.0 0.00 0.00 0.00 50 1015.7
20260510134843 21 355 1.6 8.0 0.00 0.00 0.00 53 1015.8
20260510134346 21 303 1.6 8.0 0.00 0.00 0.00 52 1015.7
20260510133452 20 310 3.2 8.0 0.00 0.00 0.00 54 1015.6
20260510132941 20 318 3.2 8.0 0.00 0.00 0.00 53 1015.6
20260510132441 20 311 3.2 6.4 0.00 0.00 0.00 54 1015.7
20260510131945 20 313 3.2 6.4 0.00 0.00 0.00 55 1015.7
20260510131503 20 307 3.2 6.4 0.00 0.00 0.00 55 1015.6
20260510130948 19 306 3.2 6.4 0.00 0.00 0.00 59 1015.5
20260510130505 19 297 3.2 6.4 0.00 0.00 0.00 59 1015.6
20260510125948 18 317 3.2 8.0 0.00 0.00 0.00 59 1015.6
20260510125441 18 319 3.2 8.0 0.00 0.00 0.00 61 1015.3
20260510124944 17 315 3.2 8.0 0.00 0.00 0.00 61 1015.4
20260510124441 17 313 3.2 6.4 0.00 0.00 0.00 62 1015.3
20260510123941 17 310 3.2 6.4 0.00 0.00 0.00 64 1015.3
20260510123441 17 310 3.2 8.0 0.00 0.00 0.00 64 1015.1
20260510122942 16 308 3.2 8.0 0.00 0.00 0.00 66 1014.9
20260510122440 16 313 3.2 8.0 0.00 0.00 0.00 66 1015.0
20260510121943 16 305 3.2 9.7 0.00 0.00 0.00 67 1014.8
20260510121441 15 312 4.8 9.7 0.00 0.00 0.00 68 1014.7
20260510120617 15 310 4.8 11.3 0.00 0.00 0.00 69 1014.7
20260510120114 15 309 4.8 11.3 0.00 0.00 0.00 70 1014.7
20260510115614 14 314 4.8 9.7 0.00 0.00 0.00 71 1014.6
20260510115114 14 309 4.8 9.7 0.00 0.00 0.00 72 1014.5
20260510114409 13 304 4.8 9.7 0.00 0.00 0.00 74 1014.4
20260510113908 13 308 4.8 9.7 0.00 0.00 0.00 75 1014.3
20260510113427 12 313 4.8 9.7 0.00 0.00 0.00 77 1014.2
20260510112809 12 315 4.8 9.7 0.00 0.00 0.00 78 1014.1
20260510112309 12 309 4.8 9.7 0.00 0.00 0.00 80 1014.0
20260510111813 11 312 4.8 9.7 0.00 0.00 0.00 81 1013.9
20260510111309 11 319 6.4 9.7 0.00 0.00 0.00 82 1013.9
20260510110810 11 306 4.8 9.7 0.00 0.00 0.00 82 1013.7
20260510110309 11 309 4.8 9.7 0.00 0.00 0.00 82 1013.7
20260510105322 11 306 4.8 9.7 0.00 0.00 0.00 83 1013.5
20260510104821 11 312 4.8 11.3 0.00 0.00 0.00 83 1013.5
20260510104321 11 310 6.4 11.3 0.00 0.00 0.00 83 1013.3
20260510103821 11 308 4.8 9.7 0.00 0.00 0.00 84 1013.3
20260510102830 11 312 6.4 11.3 0.00 0.00 0.00 85 1013.3
20260510102335 11 310 6.4 11.3 0.00 0.00 0.00 85 1013.2
20260510101826 11 310 6.4 9.7 0.00 0.00 0.00 84 1013.2
20260510101334 11 309 6.4 9.7 0.00 0.00 0.00 84 1013.1
20260510100826 11 308 6.4 9.7 0.00 0.00 0.00 84 1013.1
20260510100326 11 311 6.4 11.3 0.00 0.00 0.00 84 1013.0
20260510095830 11 308 6.4 11.3 0.00 0.00 0.00 84 1013.0
20260510095326 11 307 6.4 9.7 0.00 0.00 0.00 84 1013.0
20260510094826 11 305 6.4 9.7 0.00 0.00 0.00 84 1012.9
20260510094327 11 307 6.4 9.7 0.00 0.00 0.00 84 1013.0
20260510093648 11 306 6.4 11.3 0.00 0.00 0.00 84 1012.9
20260510093144 11 305 6.4 11.3 0.00 0.00 0.00 84 1012.8
20260510092642 11 313 6.4 11.3 0.00 0.00 0.00 84 1012.9
20260510092151 11 306 6.4 11.3 0.00 0.00 0.00 84 1012.7
20260510091642 11 308 4.8 9.7 0.00 0.00 0.00 84 1012.7
20260510091150 11 312 6.4 9.7 0.00 0.00 0.00 84 1012.6
20260510090647 11 305 6.4 9.7 0.00 0.00 0.00 84 1012.7
20260510090143 11 307 6.4 9.7 0.00 0.00 0.00 84 1012.6
20260510085217 11 308 6.4 9.7 0.00 0.00 0.00 83 1012.6
20260510084721 11 306 4.8 9.7 0.00 0.00 0.00 83 1012.5
20260510084217 12 309 4.8 9.7 0.00 0.00 0.00 83 1012.5
20260510083742 11 309 4.8 9.7 0.00 0.00 0.00 83 1012.4
20260510083218 11 303 4.8 9.7 0.00 0.00 0.00 83 1012.2
20260510082717 11 310 4.8 9.7 0.00 0.00 0.00 83 1012.2
20260510082220 11 303 4.8 9.7 0.00 0.00 0.00 83 1012.0
20260510081717 11 305 4.8 11.3 0.00 0.00 0.00 83 1012.0
20260510081219 11 313 4.8 11.3 0.00 0.00 0.00 83 1012.0
20260510080717 11 313 4.8 9.7 0.00 0.00 0.00 83 1012.0
20260510080219 11 311 4.8 9.7 0.00 0.00 0.00 83 1012.0
20260510075718 11 306 4.8 9.7 0.00 0.00 0.00 83 1012.0
20260510075217 11 302 4.8 9.7 0.00 0.00 0.00 83 1012.1
20260510074225 11 310 4.8 8.0 0.00 0.00 0.00 83 1012.2
20260510073717 11 308 4.8 8.0 0.00 0.00 0.00 82 1012.3
20260510073230 11 305 4.8 8.0 0.00 0.00 0.00 82 1011.4
20260510072718 11 304 4.8 8.0 0.00 0.00 0.00 82 1011.3
20260510072220 11 310 3.2 8.0 0.00 0.00 0.00 82 1011.2
20260510071717 11 308 4.8 8.0 0.00 0.00 0.00 82 1011.2
20260510070735 11 303 4.8 8.0 0.00 0.00 0.00 82 1011.2
20260510070219 11 306 4.8 8.0 0.00 0.00 0.00 82 1011.3
20260510065717 11 301 4.8 8.0 0.00 0.00 0.00 82 1011.4
20260510065253 11 305 4.8 8.0 0.00 0.00 0.00 82 1011.4
20260510064717 11 303 4.8 8.0 0.00 0.00 0.00 82 1011.4
20260510064219 11 307 4.8 9.7 0.00 0.00 0.00 82 1011.5
20260510063723 11 307 4.8 9.7 0.00 0.00 0.00 82 1011.5
20260510063218 11 310 4.8 8.0 0.00 0.00 0.00 82 1011.6
20260510062718 11 315 3.2 6.4 0.00 0.00 0.00 83 1011.6
20260510062218 11 320 3.2 6.4 0.00 0.00 0.00 82 1011.6
20260510061717 11 328 3.2 6.4 0.00 0.00 0.00 82 1011.8
20260510061217 11 82 1.6 4.8 0.00 0.00 0.00 83 1011.9
20260510060717 11 86 1.6 4.8 0.00 0.00 0.00 82 1011.8
20260510060218 11 86 1.6 4.8 0.00 0.00 0.00 82 1011.8
20260510055717 11 0 0.0 4.8 0.00 0.00 0.00 82 1011.8
20260510054941 11 87 1.6 4.8 0.00 0.00 0.00 82 1011.8
20260510054441 11 0 0.0 0.0 0.00 0.00 0.00 82 1011.9
20260510053941 11 0 0.0 0.0 0.00 0.00 0.00 82 1011.9
20260510053441 11 0 0.0 0.0 0.00 0.00 0.00 81 1012.0
20260510052956 11 0 0.0 0.0 0.00 0.00 0.00 81 1012.0
20260510052441 11 0 0.0 0.0 0.00 0.00 0.00 81 1012.1
20260510051941 11 0 0.0 0.0 0.00 0.00 0.00 81 1012.1
20260510051442 11 0 0.0 0.0 0.00 0.00 0.00 80 1012.3
20260510050941 11 0 0.0 0.0 0.00 0.00 0.00 80 1012.3
20260510050509 11 0 0.0 0.0 0.00 0.00 0.00 80 1012.3
20260510045958 11 0 0.0 3.2 0.00 0.00 0.00 80 1012.1
20260510045441 11 0 0.0 3.2 0.00 0.00 0.00 79 1012.1
20260510044942 12 0 0.0 1.6 0.00 0.00 0.00 78 1011.9
20260510043950 12 0 0.0 3.2 0.00 0.00 0.00 78 1011.9
20260510043511 12 0 0.0 3.2 0.00 0.00 0.00 78 1011.9
20260510042954 12 0 0.0 3.2 0.00 0.00 0.00 78 1012.0
20260510042442 12 0 0.0 4.8 0.00 0.00 0.00 77 1011.8
20260510041941 12 0 0.0 4.8 0.00 0.00 0.00 76 1012.0
20260510041440 12 87 1.6 4.8 0.00 0.00 0.00 76 1012.0
20260510040940 12 0 0.0 3.2 0.00 0.00 0.00 75 1012.0
20260510040508 12 0 0.0 3.2 0.00 0.00 0.00 75 1012.0
20260510035723 12 0 0.0 3.2 0.00 0.00 0.00 74 1012.1
20260510035204 13 0 0.0 3.2 0.00 0.00 0.00 74 1012.1
20260510034704 13 0 0.0 1.6 0.00 0.00 0.00 74 1012.1
20260510034247 13 0 0.0 4.8 0.00 0.00 0.00 73 1012.1
20260510034204 13 0 0.0 4.8 0.00 0.00 0.00 73 1012.1
20260510033710 13 0 0.0 4.8 0.00 0.00 0.00 73 1012.1
20260510033204 13 0 0.0 3.2 0.00 0.00 0.00 73 1012.1
20260510032722 13 0 0.0 4.8 0.00 0.00 0.00 73 1012.1
20260510032204 13 0 0.0 4.8 0.00 0.00 0.00 73 1012.0
20260510031704 12 0 0.0 1.6 0.00 0.00 0.00 74 1012.0
20260510031216 12 0 0.0 0.0 0.00 0.00 0.00 74 1012.1
20260510030722 12 0 0.0 0.0 0.00 0.00 0.00 74 1012.0
20260510030204 12 0 0.0 0.0 0.00 0.00 0.00 74 1012.0
20260510025704 12 0 0.0 0.0 0.00 0.00 0.00 74 1011.9
20260510025219 12 0 0.0 0.0 0.00 0.00 0.00 74 1011.7
20260510024704 12 0 0.0 0.0 0.00 0.00 0.00 74 1011.8
20260510024204 12 0 0.0 0.0 0.00 0.00 0.00 74 1011.8
20260510023704 12 0 0.0 0.0 0.00 0.00 0.00 74 1011.7
20260510023204 12 0 0.0 0.0 0.00 0.00 0.00 73 1011.6
20260510022721 12 0 0.0 0.0 0.00 0.00 0.00 73 1011.5
20260510021742 12 0 0.0 0.0 0.00 0.00 0.00 73 1011.7
20260510021241 13 0 0.0 0.0 0.00 0.00 0.00 73 1011.7
20260510020741 13 0 0.0 0.0 0.00 0.00 0.00 72 1011.7
20260510020248 13 0 0.0 0.0 0.00 0.00 0.00 72 1011.6
20260510015742 13 0 0.0 0.0 0.00 0.00 0.00 71 1011.4
20260510015251 13 0 0.0 0.0 0.00 0.00 0.00 70 1011.4
20260510014741 13 0 0.0 0.0 0.00 0.00 0.00 70 1011.4
20260510014243 13 0 0.0 0.0 0.00 0.00 0.00 70 1011.4
20260510013742 13 0 0.0 0.0 0.00 0.00 0.00 70 1011.2
20260510013241 13 0 0.0 0.0 0.00 0.00 0.00 70 1010.9
20260510012741 13 0 0.0 1.6 0.00 0.00 0.00 70 1010.9
20260510012253 13 0 0.0 1.6 0.00 0.00 0.00 70 1010.8
20260510011742 13 0 0.0 0.0 0.00 0.00 0.00 70 1010.7
20260510011243 13 0 0.0 0.0 0.00 0.00 0.00 69 1010.7
20260510010741 13 0 0.0 1.6 0.00 0.00 0.00 68 1010.5
20260510010244 13 0 0.0 1.6 0.00 0.00 0.00 68 1010.5
20260510005741 14 0 0.0 0.0 0.00 0.00 0.00 67 1010.4
20260510005256 14 0 0.0 0.0 0.00 0.00 0.00 67 1010.1
20260510004741 14 0 0.0 0.0 0.00 0.00 0.00 67 1010.0
20260510004243 14 0 0.0 1.6 0.00 0.00 0.00 67 1010.0
20260510003741 15 0 0.0 3.2 0.00 0.00 0.00 67 1009.9
20260510003241 15 0 0.0 3.2 0.00 0.00 0.00 66 1009.8
20260510002741 15 0 0.0 1.6 0.00 0.00 0.00 67 1009.6
20260510002248 15 0 0.0 3.2 0.00 0.00 0.00 67 1009.7
20260510001743 15 0 0.0 3.2 0.00 0.00 0.00 66 1009.7
20260510001241 15 0 0.0 4.8 0.00 0.00 0.00 66 1009.7
20260510000741 16 292 1.6 6.4 0.00 0.00 0.00 65 1009.7
20260510000244 16 292 1.6 6.4 0.00 0.00 0.00 64 1009.6
20260509235741 16 292 1.6 4.8 0.00 0.00 0.00 63 1009.7
20260509235258 16 292 1.6 4.8 0.00 0.00 0.00 63 1009.7
20260509234743 16 291 1.6 4.8 0.00 0.00 0.00 62 1009.7
20260509234243 16 292 1.6 6.4 0.00 0.00 0.00 62 1009.6
20260509233741 16 0 0.0 6.4 0.00 0.00 0.00 62 1009.8
20260509233241 16 293 1.6 4.8 0.00 0.00 0.00 60 1009.6
20260509232748 16 0 0.0 4.8 0.00 0.00 0.00 60 1009.5
20260509232243 17 0 0.0 6.4 0.00 0.00 0.00 58 1009.6
20260509231741 17 294 1.6 6.4 0.00 0.00 0.00 59 1009.3
20260509231242 17 277 1.6 8.0 0.00 0.00 0.00 59 1009.3
20260509230741 17 264 1.6 8.0 0.00 0.00 0.00 58 1009.2
20260509225840 17 317 1.6 4.8 0.00 0.00 0.00 58 1009.2
20260509225341 17 316 1.6 4.8 0.00 0.00 0.00 58 1009.1
20260509224841 17 316 1.6 6.4 0.00 0.00 0.00 58 1009.0
20260509224340 17 320 3.2 8.0 0.00 0.00 0.00 56 1009.0
20260509223841 18 292 3.2 8.0 0.00 0.00 0.00 55 1009.0
20260509223344 18 0 0.0 4.8 0.00 0.00 0.00 58 1009.0
20260509222841 18 0 0.0 12.9 0.00 0.00 0.00 58 1009.2
20260509222341 18 276 1.6 12.9 0.00 0.00 0.00 56 1009.0
20260509221845 18 351 1.6 12.9 0.00 0.00 0.00 56 1009.0
20260509221341 18 34 1.6 6.4 0.00 0.00 0.00 57 1009.0
20260509220840 18 334 1.6 6.4 0.00 0.00 0.00 57 1009.1
20260509220343 18 0 0.0 8.0 0.00 0.00 0.00 60 1009.2
20260509215840 18 0 0.0 8.0 0.00 0.00 0.00 60 1009.2
20260509215340 18 0 0.0 3.2 0.00 0.00 0.00 64 1009.1
20260509214841 18 0 0.0 3.2 0.00 0.00 0.00 65 1009.0
20260509214340 18 0 0.0 1.6 0.00 0.00 0.00 66 1009.0
20260509213841 18 0 0.0 0.0 0.00 0.00 0.00 66 1008.9
20260509213340 18 0 0.0 0.0 0.00 0.00 0.00 66 1008.9
20260509212840 18 0 0.0 0.0 0.00 0.00 0.00 67 1009.0
20260509212342 18 0 0.0 0.0 0.00 0.00 0.00 65 1008.7
20260509211841 19 0 0.0 0.0 0.00 0.00 0.00 64 1008.8
20260509211340 19 0 0.0 0.0 0.00 0.00 0.00 63 1008.7
20260509210840 19 0 0.0 0.0 0.00 0.00 0.00 63 1008.7
20260509210243 20 0 0.0 0.0 0.00 0.00 0.00 62 1008.7
20260509205740 20 0 0.0 0.0 0.00 0.00 0.00 61 1008.5
20260509205240 20 0 0.0 1.6 0.00 0.00 0.00 63 1008.6
20260509204740 20 0 0.0 3.2 0.00 0.00 0.00 61 1008.5
20260509204249 20 0 0.0 3.2 0.00 0.00 0.00 60 1008.6
20260509203744 20 0 0.0 3.2 0.00 0.00 0.00 62 1008.5
20260509203240 20 0 0.0 4.8 0.00 0.00 0.00 63 1008.5
20260509202747 19 0 0.0 4.8 0.00 0.00 0.00 65 1008.5
20260509202251 19 0 0.0 4.8 0.00 0.00 0.00 65 1008.7
20260509201341 18 0 0.0 3.2 0.00 0.00 0.00 66 1008.6
20260509200853 18 0 0.0 1.6 0.00 0.00 0.00 67 1008.6
20260509200344 18 0 0.0 3.2 0.00 0.00 0.00 66 1008.7
20260509195841 18 0 0.0 3.2 0.00 0.00 0.00 65 1008.7
20260509195342 18 0 0.0 4.8 0.00 0.00 0.00 64 1008.9
20260509194842 19 0 0.0 4.8 0.00 0.00 0.00 62 1008.8
20260509194341 19 0 0.0 4.8 0.00 0.00 0.00 62 1008.9
20260509193842 19 0 0.0 3.2 0.00 0.00 0.00 63 1008.9
20260509193341 20 0 0.0 3.2 0.00 0.00 0.00 61 1008.9
20260509192842 20 0 0.0 6.4 0.00 0.00 0.00 62 1008.9
20260509192342 20 0 0.0 6.4 0.00 0.00 0.00 61 1008.8
20260509191841 20 0 0.0 12.9 0.00 0.00 0.00 61 1008.9
20260509191341 20 249 1.6 12.9 0.00 0.00 0.00 62 1008.8
20260509190851 20 0 0.0 4.8 0.00 0.00 0.00 63 1008.7
20260509190341 20 0 0.0 4.8 0.00 0.00 0.00 61 1008.8
20260509185846 20 0 0.0 4.8 0.00 0.00 0.00 62 1008.8
20260509185341 19 0 0.0 3.2 0.00 0.00 0.00 67 1008.8
20260509184841 18 0 0.0 3.2 0.00 0.00 0.00 67 1008.9
20260509184402 19 0 0.0 3.2 0.00 0.00 0.00 65 1008.9